Time;durP1;ratioP1;P1;durP2;ratioP2;P2;SDS_P1;SDS_P2;PMS_P1;PMS_P2;Temp;Humidity;BMP_temperature;BMP_pressure;BME280_temperature;BME280_humidity;BME280_pressure;Samples;Min_cycle;Max_cycle;Signal;HPM_P1;HPM_P2
2021/03/19 00:00:13;;;;;;;6.05;4.30;;;;;;;0.89;85.20;99043.63;129148;1105;23842;-61
2021/03/19 00:02:40;;;;;;;5.90;4.30;;;;;;;0.90;85.75;99037.23;129310;1105;22941;-61
2021/03/19 00:05:11;;;;;;;7.75;4.60;;;;;;;0.90;85.15;99033.72;129176;1105;22931;-61
2021/03/19 00:07:49;;;;;;;4.10;3.40;;;;;;;0.89;85.87;99030.22;129271;1105;22847;-62
2021/03/19 00:10:18;;;;;;;8.57;4.47;;;;;;;0.92;85.08;99037.84;129185;1105;22994;-61
2021/03/19 00:12:46;;;;;;;6.07;3.93;;;;;;;0.92;85.43;99029.80;129294;1105;22884;-61
2021/03/19 00:15:16;;;;;;;5.27;4.73;;;;;;;0.92;85.82;99032.48;129164;1105;23689;-61
2021/03/19 00:17:43;;;;;;;7.13;4.83;;;;;;;0.88;85.92;99028.56;129271;1105;22939;-61
2021/03/19 00:20:31;;;;;;;4.90;4.25;;;;;;;0.87;85.64;99029.59;129168;1105;22863;-61
2021/03/19 00:23:00;;;;;;;4.50;3.90;;;;;;;0.89;85.04;99029.39;129265;1104;22811;-61
2021/03/19 00:25:30;;;;;;;4.30;3.25;;;;;;;0.89;84.84;99022.17;129225;1105;22811;-61
2021/03/19 00:27:59;;;;;;;4.50;3.87;;;;;;;0.89;85.52;99024.02;129276;1105;22911;-61
2021/03/19 00:30:27;;;;;;;5.35;3.75;;;;;;;0.89;85.77;99024.02;129321;1105;22785;-61
2021/03/19 00:32:55;;;;;;;4.60;3.80;;;;;;;0.88;84.77;99025.05;129116;1105;22898;-62
2021/03/19 00:35:23;;;;;;;6.97;3.80;;;;;;;0.87;84.97;99029.59;129264;1105;22824;-61
2021/03/19 00:37:51;;;;;;;5.17;4.00;;;;;;;0.85;84.58;99018.28;129177;1105;23591;-61
2021/03/19 00:40:19;;;;;;;7.30;4.00;;;;;;;0.83;85.09;99025.70;129217;1105;23610;-61
2021/03/19 00:42:47;;;;;;;4.57;3.33;;;;;;;0.84;85.76;99021.98;129172;1105;22906;-61
2021/03/19 00:45:15;;;;;;;5.93;4.27;;;;;;;0.84;84.62;99024.67;129323;1105;22927;-61
2021/03/19 00:47:50;;;;;;;5.03;3.63;;;;;;;0.81;85.81;99014.34;129109;1105;22897;-61
2021/03/19 00:50:33;;;;;;;5.10;3.80;;;;;;;0.80;85.05;99023.42;129247;1105;23421;-63
2021/03/19 00:53:01;;;;;;;5.50;3.90;;;;;;;0.78;85.32;99025.48;129175;1105;23817;-61
2021/03/19 00:55:29;;;;;;;9.10;5.53;;;;;;;0.75;85.15;99023.21;129290;1105;23804;-61
2021/03/19 00:57:56;;;;;;;6.47;4.57;;;;;;;0.75;85.92;99025.89;129141;1105;23065;-61
2021/03/19 01:00:25;;;;;;;5.97;4.23;;;;;;;0.76;85.21;99021.36;129300;1105;22843;-61
2021/03/19 01:02:54;;;;;;;6.73;4.93;;;;;;;0.79;85.30;99015.58;129153;1105;22950;-61
2021/03/19 01:05:24;;;;;;;6.57;4.70;;;;;;;0.78;84.70;99014.77;129254;1105;23744;-61
2021/03/19 01:07:51;;;;;;;6.05;4.60;;;;;;;0.77;85.45;99018.47;129180;1104;22975;-61
2021/03/19 01:10:42;;;;;;;6.80;4.30;;;;;;;0.77;86.09;99023.00;129244;1105;22978;-61
2021/03/19 01:13:10;;;;;;;7.77;5.57;;;;;;;0.74;85.04;99024.23;129154;1105;22797;-61
2021/03/19 01:15:38;;;;;;;6.10;4.47;;;;;;;0.72;84.98;99039.73;129233;1105;22833;-61
2021/03/19 01:18:08;;;;;;;8.35;5.65;;;;;;;0.70;85.04;99026.53;129149;1105;23368;-62
2021/03/19 01:20:40;;;;;;;13.60;7.95;;;;;;;0.68;85.53;99019.72;129315;1105;23607;-61
2021/03/19 01:23:07;;;;;;;8.60;5.93;;;;;;;0.66;84.91;99030.65;129178;1105;23915;-61
2021/03/19 01:25:35;;;;;;;7.53;5.57;;;;;;;0.64;86.15;99026.52;129305;1105;22874;-61
2021/03/19 01:28:03;;;;;;;9.17;5.80;;;;;;;0.67;86.08;99034.98;129137;1105;22981;-62
2021/03/19 01:30:33;;;;;;;7.00;5.17;;;;;;;0.63;84.64;99036.42;129243;1105;22888;-61
2021/03/19 01:33:00;;;;;;;7.65;4.95;;;;;;;0.61;86.05;99029.61;129358;1105;22943;-61
2021/03/19 01:35:30;;;;;;;5.50;4.23;;;;;;;0.62;85.78;99029.41;129185;1105;23005;-63
2021/03/19 01:37:57;;;;;;;5.60;5.00;;;;;;;0.64;85.24;99034.56;129275;1105;22816;-63
2021/03/19 01:40:28;;;;;;;6.30;5.05;;;;;;;0.67;86.40;99034.16;129185;1105;22800;-63
2021/03/19 01:43:09;;;;;;;6.20;4.60;;;;;;;0.65;86.24;99036.21;129268;1104;22848;-64
2021/03/19 01:46:04;;;;;;;5.87;4.37;;;;;;;0.61;85.68;99035.80;129182;1105;23555;-64
2021/03/19 01:49:09;;;;;;;7.00;4.03;;;;;;;0.62;85.96;99037.45;129307;1105;22798;-63
2021/03/19 01:52:15;;;;;;;6.30;4.27;;;;;;;0.60;85.15;99039.50;129258;1105;22845;-63
2021/03/19 01:55:22;;;;;;;5.67;4.07;;;;;;;0.54;84.92;99040.34;129142;1104;23591;-63
2021/03/19 01:58:28;;;;;;;5.70;4.23;;;;;;;0.52;85.25;99045.08;129293;1105;22952;-64
2021/03/19 02:01:33;;;;;;;5.53;4.20;;;;;;;0.51;86.25;99039.92;129179;1105;23020;-63
2021/03/19 02:04:39;;;;;;;6.70;4.10;;;;;;;0.49;86.01;99041.97;129301;1105;23987;-63
2021/03/19 02:07:44;;;;;;;6.50;4.50;;;;;;;0.50;86.43;99040.95;129291;1105;22821;-63
2021/03/19 02:10:49;;;;;;;6.10;4.20;;;;;;;0.47;86.06;99047.53;129125;1105;22876;-63
2021/03/19 02:13:54;;;;;;;6.63;4.80;;;;;;;0.47;86.54;99049.39;129242;1105;23558;-63
2021/03/19 02:16:59;;;;;;;8.87;6.23;;;;;;;0.46;86.15;99047.73;129205;1105;22835;-63
2021/03/19 02:20:04;;;;;;;7.40;4.77;;;;;;;0.47;85.48;99049.39;129299;1105;23008;-63
2021/03/19 02:23:09;;;;;;;8.00;5.03;;;;;;;0.48;86.59;99053.72;129273;1105;22964;-63
2021/03/19 02:26:14;;;;;;;11.47;7.10;;;;;;;0.54;86.49;99047.56;129193;1105;23682;-63
2021/03/19 02:29:19;;;;;;;11.60;6.95;;;;;;;0.59;86.54;99043.21;129338;1104;22813;-63
2021/03/19 02:31:51;;;;;;;7.57;5.77;;;;;;;0.60;86.48;99054.76;129173;1105;23752;-63
2021/03/19 02:34:20;;;;;;;7.30;4.77;;;;;;;0.62;85.67;99052.70;129275;1105;22879;-63
2021/03/19 02:36:48;;;;;;;10.60;5.60;;;;;;;0.64;85.72;99061.38;129135;1105;22889;-61
2021/03/19 02:39:16;;;;;;;8.73;5.17;;;;;;;0.61;85.39;99056.41;129260;1104;22847;-61
2021/03/19 02:41:43;;;;;;;9.17;5.47;;;;;;;0.56;86.09;99059.73;129153;1105;25123;-61
2021/03/19 02:44:11;;;;;;;7.55;5.50;;;;;;;0.51;85.16;99059.51;129231;1105;22902;-61
2021/03/19 02:46:38;;;;;;;6.35;4.30;;;;;;;0.48;85.85;99059.91;129189;1105;23409;-61
2021/03/19 02:49:06;;;;;;;8.67;5.37;;;;;;;0.51;85.84;99062.19;129265;1104;22910;-61
2021/03/19 02:51:34;;;;;;;8.05;4.85;;;;;;;0.51;85.99;99067.55;129176;1105;22927;-62
2021/03/19 02:54:01;;;;;;;8.63;4.63;;;;;;;0.50;86.36;99073.94;129265;1104;23097;-61
2021/03/19 02:56:29;;;;;;;9.55;5.90;;;;;;;0.50;86.51;99068.58;129163;1105;22894;-62
2021/03/19 02:58:56;;;;;;;9.70;5.00;;;;;;;0.55;85.92;99073.33;129301;1105;22785;-62
2021/03/19 03:01:24;;;;;;;9.20;5.03;;;;;;;0.58;85.65;99078.26;129327;1105;23112;-62
2021/03/19 03:03:52;;;;;;;10.63;4.97;;;;;;;0.60;86.41;99071.67;129117;1105;22844;-62
2021/03/19 03:06:20;;;;;;;7.70;4.50;;;;;;;0.61;85.53;99075.17;129239;1105;22851;-62
2021/03/19 03:08:48;;;;;;;7.37;4.90;;;;;;;0.59;85.13;99078.05;129170;1105;24082;-62
2021/03/19 03:11:15;;;;;;;8.40;6.17;;;;;;;0.56;85.79;99086.53;129268;1105;22978;-62
2021/03/19 03:13:43;;;;;;;5.30;4.30;;;;;;;0.52;86.02;99087.14;129146;1105;22862;-62
2021/03/19 03:16:11;;;;;;;5.63;4.57;;;;;;;0.51;85.68;99080.13;127407;1104;23346;-60
2021/03/19 03:19:40;;;;;;;5.30;4.33;;;;;;;0.54;86.33;99088.59;124360;1111;23019;-60
2021/03/19 03:22:08;;;;;;;7.43;5.57;;;;;;;0.53;86.22;99084.25;128315;1110;23673;-61
2021/03/19 03:24:36;;;;;;;9.20;5.73;;;;;;;0.53;85.61;99091.47;128159;1111;23454;-61
2021/03/19 03:27:04;;;;;;;7.70;6.10;;;;;;;0.49;86.22;99085.69;128320;1110;23766;-61
2021/03/19 03:29:32;;;;;;;9.67;6.50;;;;;;;0.45;85.23;99089.79;128212;1111;22845;-61
2021/03/19 03:31:59;;;;;;;6.27;4.90;;;;;;;0.41;85.21;99090.42;128352;1111;22878;-61
2021/03/19 03:34:27;;;;;;;7.25;5.45;;;;;;;0.38;86.43;99096.18;128120;1110;22849;-61
2021/03/19 03:36:56;;;;;;;9.33;6.33;;;;;;;0.38;85.42;99086.29;128326;1111;22841;-61
2021/03/19 03:39:28;;;;;;;7.60;6.00;;;;;;;0.35;85.42;99092.88;128120;1109;23014;-61
2021/03/19 03:41:57;;;;;;;9.10;6.33;;;;;;;0.33;85.51;99099.45;128316;1112;23042;-61
2021/03/19 03:44:24;;;;;;;8.90;6.93;;;;;;;0.31;85.46;99096.15;128243;1111;22979;-61
2021/03/19 03:46:53;;;;;;;10.97;7.13;;;;;;;0.31;85.47;99098.83;128294;1112;22908;-61
2021/03/19 03:49:22;;;;;;;9.77;6.90;;;;;;;0.28;85.75;99092.05;128150;1111;22939;-61
2021/03/19 03:51:50;;;;;;;8.87;6.53;;;;;;;0.27;86.68;99093.08;128325;1110;22860;-61
2021/03/19 03:54:17;;;;;;;8.47;6.20;;;;;;;0.28;86.29;99088.55;128181;1111;23559;-61
2021/03/19 03:56:45;;;;;;;8.93;6.20;;;;;;;0.27;86.95;99093.08;128291;1110;22866;-61
2021/03/19 03:59:12;;;;;;;7.40;5.57;;;;;;;0.31;86.62;99093.47;128120;1111;23579;-61
2021/03/19 04:01:40;;;;;;;8.33;5.87;;;;;;;0.31;86.02;99094.30;128287;1111;26559;-61
2021/03/19 04:04:12;;;;;;;9.53;6.53;;;;;;;0.33;86.76;99092.25;128189;1111;22809;-61
2021/03/19 04:06:40;;;;;;;7.23;5.60;;;;;;;0.32;85.63;99090.59;128328;1111;22979;-61
2021/03/19 04:09:07;;;;;;;8.37;6.30;;;;;;;0.34;86.32;99093.90;128276;1112;22808;-61
2021/03/19 04:11:35;;;;;;;7.83;6.03;;;;;;;0.36;86.17;99099.06;128240;1111;23644;-61
2021/03/19 04:14:02;;;;;;;8.50;6.57;;;;;;;0.36;86.08;99101.73;128324;1111;22910;-61
2021/03/19 04:16:30;;;;;;;11.43;6.73;;;;;;;0.36;86.42;99096.38;128231;1111;22920;-61
2021/03/19 04:18:57;;;;;;;10.17;6.77;;;;;;;0.38;86.62;99101.54;128256;1111;22920;-61
2021/03/19 04:21:25;;;;;;;9.83;7.00;;;;;;;0.37;85.95;99100.72;128136;1112;22885;-61
2021/03/19 04:23:52;;;;;;;9.07;6.77;;;;;;;0.37;85.66;99102.56;128293;1111;22851;-61
2021/03/19 04:26:25;;;;;;;8.25;6.75;;;;;;;0.38;85.86;99099.69;128122;1112;22923;-61
2021/03/19 04:28:53;;;;;;;8.30;6.95;;;;;;;0.33;85.61;99096.78;128322;1112;23794;-61
2021/03/19 04:31:21;;;;;;;8.53;6.70;;;;;;;0.38;85.62;99104.22;128141;1112;23010;-62
2021/03/19 04:33:49;;;;;;;11.10;7.20;;;;;;;0.36;85.96;99096.38;128317;1111;24104;-62
2021/03/19 04:36:45;;;;;;;9.90;7.37;;;;;;;0.32;85.28;99100.48;128192;1111;22971;-62
2021/03/19 04:39:16;;;;;;;9.00;6.87;;;;;;;0.29;85.71;99104.39;128285;1112;23067;-62
2021/03/19 04:41:49;;;;;;;7.17;5.50;;;;;;;0.30;86.09;99108.72;128188;1111;23009;-61
2021/03/19 04:44:16;;;;;;;8.03;6.40;;;;;;;0.31;85.79;99104.19;128269;1111;22860;-61
2021/03/19 04:46:45;;;;;;;6.90;5.30;;;;;;;0.30;86.50;99106.04;125440;1111;23039;-61
2021/03/19 04:49:13;;;;;;;10.27;7.53;;;;;;;0.30;86.09;99102.53;128345;1111;23084;-61
2021/03/19 04:51:40;;;;;;;8.80;6.47;;;;;;;0.28;86.27;99100.09;128197;1110;22963;-61
2021/03/19 04:54:08;;;;;;;9.93;6.53;;;;;;;0.22;86.44;99103.56;128304;1111;22834;-61
2021/03/19 04:56:35;;;;;;;9.37;6.20;;;;;;;0.20;85.95;99110.14;128190;1111;22919;-61
2021/03/19 04:59:03;;;;;;;8.63;6.77;;;;;;;0.21;85.68;99106.44;128296;1111;23095;-61
2021/03/19 05:01:31;;;;;;;7.67;5.73;;;;;;;0.21;87.10;99104.59;128151;1111;24463;-61
2021/03/19 05:04:00;;;;;;;9.70;6.87;;;;;;;0.23;85.75;99112.42;128335;1111;23496;-61
2021/03/19 05:06:27;;;;;;;11.60;7.80;;;;;;;0.21;86.60;99109.94;128169;1111;22945;-61
2021/03/19 05:08:55;;;;;;;10.10;6.63;;;;;;;0.20;86.94;99113.65;128320;1111;23572;-61
2021/03/19 05:11:23;;;;;;;12.83;7.63;;;;;;;0.20;86.43;99108.29;128250;1111;22948;-62
2021/03/19 05:13:51;;;;;;;12.70;9.50;;;;;;;0.21;86.49;99117.16;128203;1111;22952;-62
2021/03/19 05:16:19;;;;;;;10.60;7.83;;;;;;;0.19;86.63;99113.84;128342;1111;22929;-61
2021/03/19 05:18:47;;;;;;;9.93;6.80;;;;;;;0.18;86.92;99115.70;128129;1111;22995;-61
2021/03/19 05:21:15;;;;;;;8.37;6.40;;;;;;;0.16;86.32;99114.23;128325;1111;23362;-61
2021/03/19 05:23:42;;;;;;;9.73;6.63;;;;;;;0.16;86.56;99116.92;128167;1111;22857;-61
2021/03/19 05:26:10;;;;;;;9.00;7.17;;;;;;;0.17;86.83;99115.89;126537;1112;23161;-61
2021/03/19 05:28:38;;;;;;;10.33;7.60;;;;;;;0.20;86.37;99115.50;128205;1112;22895;-61
2021/03/19 05:31:06;;;;;;;9.47;6.97;;;;;;;0.21;86.95;99119.83;128324;1111;23431;-61
2021/03/19 05:33:52;;;;;;;9.20;6.80;;;;;;;0.23;86.66;99117.78;128204;1111;22851;-61
2021/03/19 05:36:26;;;;;;;9.07;5.87;;;;;;;0.21;86.73;99115.30;128307;1111;22844;-61
2021/03/19 05:38:54;;;;;;;8.37;6.23;;;;;;;0.27;86.02;99121.72;128086;1111;23018;-60
2021/03/19 05:41:27;;;;;;;9.27;6.70;;;;;;;0.28;86.60;99124.20;128324;1111;22866;-61
2021/03/19 05:44:06;;;;;;;8.00;6.30;;;;;;;0.30;87.14;99134.69;128204;1111;23413;-61
2021/03/19 05:46:36;;;;;;;10.05;7.15;;;;;;;0.34;86.04;99136.77;128268;1111;23691;-60
2021/03/19 05:49:13;;;;;;;8.90;6.73;;;;;;;0.36;86.05;99133.89;128200;1111;22865;-60
2021/03/19 05:51:52;;;;;;;8.65;6.60;;;;;;;0.38;85.70;99136.38;128277;1112;22977;-61
2021/03/19 05:54:40;;;;;;;9.35;6.75;;;;;;;0.41;85.47;99142.16;128204;1111;22837;-61
2021/03/19 05:57:31;;;;;;;10.37;6.90;;;;;;;0.43;86.39;99148.16;128325;1111;22830;-60
2021/03/19 05:59:59;;;;;;;8.87;6.23;;;;;;;0.40;86.23;99143.19;128127;1111;22853;-61
2021/03/19 06:02:35;;;;;;;8.15;5.80;;;;;;;0.41;85.15;99146.70;128287;1111;22997;-61
2021/03/19 06:05:10;;;;;;;9.45;6.45;;;;;;;0.42;85.34;99151.86;128220;1111;22844;-61
2021/03/19 06:07:51;;;;;;;9.63;6.43;;;;;;;0.42;86.22;99154.54;128279;1111;22938;-60
2021/03/19 06:10:19;;;;;;;7.03;5.53;;;;;;;0.40;85.10;99153.08;128179;1112;23034;-60
2021/03/19 06:13:10;;;;;;;9.03;6.23;;;;;;;0.41;84.97;99154.73;128288;1112;25176;-61
2021/03/19 06:15:49;;;;;;;6.53;5.00;;;;;;;0.40;84.97;99164.63;128185;1111;22990;-60
2021/03/19 06:18:37;;;;;;;6.77;5.70;;;;;;;0.40;85.16;99159.27;128340;1111;23534;-61
2021/03/19 06:21:11;;;;;;;7.72;5.67;;;;;;;0.40;85.46;99159.27;128228;1111;23416;-61
2021/03/19 06:23:40;;;;;;;8.90;6.20;;;;;;;0.44;86.29;99159.67;128212;1111;22992;-61
2021/03/19 06:26:24;;;;;;;7.93;5.93;;;;;;;0.47;85.34;99165.45;128121;1111;22907;-57
2021/03/19 06:29:06;;;;;;;12.55;7.20;;;;;;;0.51;85.92;99165.89;128289;1112;22835;-56
2021/03/19 06:31:33;;;;;;;9.55;6.80;;;;;;;0.50;85.28;99161.55;128190;1111;23023;-57
2021/03/19 06:34:23;;;;;;;7.87;6.27;;;;;;;0.48;85.65;99167.11;128296;1111;22917;-62
2021/03/19 06:36:57;;;;;;;9.25;6.20;;;;;;;0.48;84.69;99168.97;128211;1111;22834;-57
2021/03/19 06:39:30;;;;;;;8.73;6.73;;;;;;;0.49;85.73;99171.45;128270;1112;22884;-57
2021/03/19 06:42:27;;;;;;;9.03;6.33;;;;;;;0.50;85.54;99172.27;128150;1111;22869;-57
2021/03/19 06:45:18;;;;;;;9.60;6.00;;;;;;;0.50;84.72;99183.00;128303;1111;23493;-57
2021/03/19 06:47:55;;;;;;;10.10;6.80;;;;;;;0.50;85.25;99174.95;128256;1111;23447;-57
2021/03/19 06:50:23;;;;;;;6.70;5.33;;;;;;;0.49;85.40;99184.02;128188;1111;22880;-57
2021/03/19 06:53:24;;;;;;;8.20;6.23;;;;;;;0.49;85.09;99182.17;128306;1111;23750;-57
2021/03/19 06:56:12;;;;;;;6.93;5.67;;;;;;;0.51;83.96;99181.97;128175;1111;23840;-57
2021/03/19 06:58:46;;;;;;;8.87;6.87;;;;;;;0.51;84.54;99179.29;128304;1111;22877;-57
2021/03/19 07:01:22;;;;;;;10.47;7.23;;;;;;;0.52;85.24;99179.09;128219;1110;22848;-57
2021/03/19 07:04:04;;;;;;;7.53;6.12;;;;;;;0.56;84.64;99177.67;128295;1111;22995;-57
2021/03/19 07:06:54;;;;;;;8.20;5.90;;;;;;;0.62;85.28;99182.20;128209;1111;22853;-57
2021/03/19 07:09:55;;;;;;;9.83;6.57;;;;;;;0.66;85.14;99187.99;128282;1111;22860;-57
2021/03/19 07:12:44;;;;;;;12.73;7.90;;;;;;;0.70;84.64;99181.20;128189;1111;22854;-57
2021/03/19 07:16:13;;;;;;;9.20;6.97;;;;;;;0.66;84.80;99171.91;128321;1111;24241;-57
2021/03/19 07:19:21;;;;;;;;;;;;;;;0.73;84.92;99194.19;128177;1112;22878;-57
2021/03/19 07:22:27;;;;;;;7.97;6.80;;;;;;;0.76;84.08;99187.59;127849;1113;21444;-57
2021/03/19 07:25:59;;;;;;;7.23;6.37;;;;;;;0.83;85.25;99188.45;128294;1112;23537;-57
2021/03/19 07:29:11;;;;;;;12.55;7.35;;;;;;;0.88;84.45;99188.64;127769;1113;23131;-57
2021/03/19 07:31:56;;;;;;;12.35;9.10;;;;;;;0.92;84.03;99190.72;127929;1112;23613;-57
2021/03/19 07:34:40;;;;;;;12.97;8.03;;;;;;;0.92;84.16;99181.84;128159;1112;22850;-57
2021/03/19 07:37:51;;;;;;;10.45;7.05;;;;;;;0.95;84.38;99197.54;127936;1112;23048;-57
2021/03/19 07:41:01;;;;;;;8.90;6.45;;;;;;;0.99;83.91;99196.11;128041;1112;23589;-57
2021/03/19 07:43:42;;;;;;;16.30;10.77;;;;;;;1.02;84.18;99191.14;127901;1112;23062;-57
2021/03/19 07:46:49;;;;;;;17.53;11.67;;;;;;;0.99;84.58;99186.20;127995;1113;23989;-57
2021/03/19 07:50:02;;;;;;;17.30;11.87;;;;;;;1.05;84.75;99203.32;127810;1114;23014;-57
2021/03/19 07:53:02;;;;;;;18.60;11.60;;;;;;;1.05;84.14;99198.78;128025;1113;22858;-57
2021/03/19 07:55:52;;;;;;;20.03;11.90;;;;;;;1.07;84.97;99198.59;127996;1112;22860;-58
2021/03/19 07:58:56;;;;;;;16.55;12.10;;;;;;;1.05;84.63;99193.42;127876;1112;22854;-58
2021/03/19 08:01:56;;;;;;;15.05;10.20;;;;;;;1.02;84.37;99204.55;128189;1111;22862;-58
2021/03/19 08:04:41;;;;;;;17.50;11.37;;;;;;;1.01;83.71;99196.73;127927;1113;22924;-58
2021/03/19 08:07:31;;;;;;;;;;;;;;;1.02;84.91;99209.09;124297;1113;24651;-57
2021/03/19 08:10:06;;;;;;;;;;;;;;;1.01;85.09;99208.27;127897;1113;21372;-58
2021/03/19 08:12:42;;;;;;;16.13;10.67;;;;;;;1.01;84.46;99210.95;128291;1111;21439;-58
2021/03/19 08:15:39;;;;;;;15.60;10.70;;;;;;;1.05;84.34;99206.83;127889;1112;23853;-58
2021/03/19 08:18:19;;;;;;;17.17;10.93;;;;;;;1.13;85.46;99203.14;128197;1112;23000;-58
2021/03/19 08:21:16;;;;;;;17.50;11.10;;;;;;;1.20;84.12;99203.13;127897;1114;22893;-58
2021/03/19 08:23:56;;;;;;;14.07;10.63;;;;;;;1.19;83.93;99198.80;127996;1113;22879;-57
2021/03/19 08:26:45;;;;;;;12.00;9.57;;;;;;;1.21;84.79;99200.25;128246;1113;23678;-57
2021/03/19 08:29:25;;;;;;;79.37;34.07;;;;;;;1.29;84.36;99201.92;127920;1112;23002;-58
2021/03/19 08:32:02;;;;;;;49.65;23.70;;;;;;;1.34;83.62;99207.47;128290;1112;23595;-57
2021/03/19 08:35:02;;;;;;;18.20;11.33;;;;;;;1.35;83.92;99207.27;127891;1114;23000;-58
2021/03/19 08:37:44;;;;;;;80.73;36.73;;;;;;;1.35;84.08;99209.95;124090;1112;23128;-56
2021/03/19 08:40:30;;;;;;;24.30;14.80;;;;;;;1.35;82.80;99215.32;128104;1112;24080;-57
2021/03/19 08:42:57;;;;;;;13.50;9.60;;;;;;;1.34;83.12;99213.67;128254;1112;22926;-57
2021/03/19 08:45:26;;;;;;;12.25;8.90;;;;;;;1.32;83.05;99212.22;127864;1112;23025;-58
2021/03/19 08:47:54;;;;;;;12.75;9.15;;;;;;;1.29;81.97;99207.28;128285;1112;22896;-57
2021/03/19 08:50:38;;;;;;;21.15;13.55;;;;;;;1.25;81.92;99204.18;128216;1111;23806;-58
2021/03/19 08:53:22;;;;;;;37.07;21.10;;;;;;;1.26;82.26;99221.11;128335;1111;23544;-58
2021/03/19 08:55:51;;;;;;;18.70;11.60;;;;;;;1.28;82.16;99211.00;128244;1111;22820;-57
2021/03/19 08:58:28;;;;;;;23.35;13.65;;;;;;;1.31;82.71;99208.70;128308;1112;23657;-57
2021/03/19 09:00:59;;;;;;;14.70;9.48;;;;;;;1.35;82.13;99219.86;128128;1112;22901;-57
2021/03/19 09:03:43;;;;;;;11.90;7.55;;;;;;;1.34;81.33;99226.26;128256;1111;23838;-57
2021/03/19 09:06:13;;;;;;;13.00;9.05;;;;;;;1.24;81.78;99213.26;126440;1112;23234;-57
2021/03/19 09:08:45;;;;;;;29.70;15.55;;;;;;;1.22;82.15;99218.00;124052;1111;23139;-56
2021/03/19 09:11:20;;;;;;;15.35;10.50;;;;;;;1.25;81.24;99227.50;128167;1112;22986;-58
2021/03/19 09:14:01;;;;;;;13.45;8.95;;;;;;;1.29;81.99;99221.53;128305;1111;22990;-58
2021/03/19 09:16:55;;;;;;;33.87;16.27;;;;;;;1.31;81.65;99223.98;128185;1112;22964;-57
2021/03/19 09:19:32;;;;;;;12.10;8.05;;;;;;;1.36;81.06;99221.52;128269;1112;22879;-58
2021/03/19 09:22:20;;;;;;;15.75;8.75;;;;;;;1.35;81.37;99222.55;128219;1110;22877;-58
2021/03/19 09:25:14;;;;;;;13.17;8.13;;;;;;;1.35;80.36;99225.23;128260;1111;22832;-58
2021/03/19 09:27:44;;;;;;;12.93;9.50;;;;;;;1.36;80.93;99222.34;128102;1111;24037;-58
2021/03/19 09:30:20;;;;;;;12.45;9.10;;;;;;;1.38;80.83;99231.02;128279;1111;24206;-57
2021/03/19 09:32:50;;;;;;;16.37;9.40;;;;;;;1.40;80.21;99226.28;128229;1108;22805;-57
2021/03/19 09:35:38;;;;;;;16.77;10.60;;;;;;;1.44;80.75;99224.02;128122;1108;22972;-57
2021/03/19 09:38:33;;;;;;;15.13;10.00;;;;;;;1.46;80.14;99221.92;128216;1107;22892;-57
2021/03/19 09:41:03;;;;;;;16.80;10.35;;;;;;;1.50;79.53;99225.02;128341;1108;22839;-57
2021/03/19 09:43:49;;;;;;;22.20;11.50;;;;;;;1.53;79.84;99222.77;128254;1108;23371;-57
2021/03/19 09:46:30;;;;;;;14.20;9.00;;;;;;;1.57;80.39;99229.38;128336;1107;22900;-57
2021/03/19 09:49:07;;;;;;;13.95;9.40;;;;;;;1.63;79.19;99228.53;128245;1108;23034;-57
2021/03/19 09:51:39;;;;;;;13.13;8.45;;;;;;;1.62;79.57;99237.61;128376;1107;22808;-58
2021/03/19 09:54:36;;;;;;;13.00;9.45;;;;;;;1.64;79.73;99230.19;128224;1109;23342;-57
2021/03/19 09:57:22;;;;;;;14.27;8.83;;;;;;;1.67;80.05;99229.77;128305;1109;23457;-57
2021/03/19 10:00:03;;;;;;;15.20;10.25;;;;;;;1.69;80.10;99232.26;128194;1111;22836;-57
2021/03/19 10:02:40;;;;;;;10.05;8.30;;;;;;;1.70;79.90;99232.05;128300;1109;23548;-56
2021/03/19 10:05:18;;;;;;;10.23;7.10;;;;;;;1.70;79.19;99232.05;128173;1109;23724;-55
2021/03/19 10:07:56;;;;;;;8.90;7.10;;;;;;;1.72;79.16;99234.53;128313;1109;22874;-56
2021/03/19 10:10:41;;;;;;;11.40;7.50;;;;;;;1.76;79.57;99238.43;128260;1109;22851;-56
2021/03/19 10:13:22;;;;;;;13.20;7.70;;;;;;;1.79;78.75;99238.02;128268;1109;22926;-55
2021/03/19 10:15:53;;;;;;;9.35;7.80;;;;;;;1.88;78.74;99241.30;128279;1109;22845;-55
2021/03/19 10:18:40;;;;;;;14.65;8.75;;;;;;;1.95;78.48;99247.51;128239;1109;23475;-56
2021/03/19 10:21:10;;;;;;;10.40;7.67;;;;;;;2.01;78.51;99241.31;128290;1109;22915;-55
2021/03/19 10:23:39;;;;;;;14.87;8.57;;;;;;;2.05;77.42;99246.03;128233;1109;23480;-55
2021/03/19 10:26:26;;;;;;;11.55;7.90;;;;;;;2.05;77.32;99245.20;128228;1109;22846;-55
2021/03/19 10:29:12;;;;;;;9.90;7.47;;;;;;;2.08;77.94;99240.25;128153;1109;22910;-54
2021/03/19 10:31:47;;;;;;;9.23;6.63;;;;;;;2.09;76.91;99249.96;128313;1112;23432;-54
2021/03/19 10:34:51;;;;;;;15.10;9.57;;;;;;;2.08;77.14;99244.80;128221;1107;22902;-54
2021/03/19 10:37:19;;;;;;;13.87;9.43;;;;;;;2.11;77.46;99241.70;128313;1108;24112;-54
2021/03/19 10:39:52;;;;;;;10.37;7.50;;;;;;;2.16;77.26;99238.38;128236;1107;22933;-56
2021/03/19 10:42:37;;;;;;;9.10;7.07;;;;;;;2.25;77.15;99242.48;128301;1108;23007;-56
2021/03/19 10:45:09;;;;;;;9.10;6.37;;;;;;;2.32;76.28;99238.72;128197;1108;22893;-57
2021/03/19 10:47:50;;;;;;;17.03;9.00;;;;;;;2.37;77.11;99238.09;128376;1106;22927;-57
2021/03/19 10:50:31;;;;;;;12.30;7.67;;;;;;;2.44;75.79;99241.61;128247;1109;22959;-56
2021/03/19 10:53:02;;;;;;;11.33;7.57;;;;;;;2.48;76.22;99238.25;128349;1108;22845;-56
2021/03/19 10:55:32;;;;;;;11.37;8.40;;;;;;;2.53;75.43;99234.94;128266;1108;22880;-56
2021/03/19 10:58:31;;;;;;;13.80;8.33;;;;;;;2.55;76.39;99224.80;128348;1107;23016;-57
2021/03/19 11:00:59;;;;;;;10.13;7.10;;;;;;;2.59;75.48;99230.58;128090;1108;23990;-57
2021/03/19 11:03:45;;;;;;;8.00;6.30;;;;;;;2.59;75.67;99230.58;128320;1108;22824;-57
2021/03/19 11:06:33;;;;;;;9.85;7.20;;;;;;;2.61;76.05;99234.69;128226;1109;22862;-57
2021/03/19 11:09:14;;;;;;;10.30;6.73;;;;;;;2.62;75.05;99232.82;128374;1107;22881;-57
2021/03/19 11:11:45;;;;;;;9.95;6.75;;;;;;;2.62;75.11;99228.27;128242;1107;22976;-57
2021/03/19 11:14:16;;;;;;;8.17;5.80;;;;;;;2.64;75.65;99228.06;128333;1107;22947;-57
2021/03/19 11:16:49;;;;;;;9.60;6.20;;;;;;;2.66;75.09;99232.19;128235;1107;22891;-55
2021/03/19 11:19:26;;;;;;;17.33;11.90;;;;;;;2.71;74.51;99236.94;128331;1108;22899;-55
2021/03/19 11:22:03;;;;;;;9.20;6.75;;;;;;;2.75;74.45;99232.76;128238;1107;23731;-55
2021/03/19 11:24:39;;;;;;;7.97;5.80;;;;;;;2.80;74.05;99231.08;128371;1107;22893;-54
2021/03/19 11:27:24;;;;;;;16.27;9.93;;;;;;;2.85;73.94;99222.38;128205;1108;22826;-54
2021/03/19 11:30:26;;;;;;;12.33;8.13;;;;;;;2.92;74.04;99231.22;128329;1108;22986;-54
2021/03/19 11:33:06;;;;;;;12.20;8.50;;;;;;;2.98;74.36;99222.30;128302;1107;22905;-54
2021/03/19 11:35:34;;;;;;;8.70;6.75;;;;;;;3.02;73.31;99228.91;128370;1107;23643;-54
2021/03/19 11:38:02;;;;;;;34.47;15.47;;;;;;;3.02;73.33;99231.59;128244;1108;22848;-55
2021/03/19 11:40:34;;;;;;;78.60;35.30;;;;;;;3.04;72.96;99229.48;128360;1108;24050;-55
2021/03/19 11:43:04;;;;;;;14.95;8.40;;;;;;;3.06;71.64;99221.20;128236;1107;22894;-55
2021/03/19 11:45:37;;;;;;;16.67;10.07;;;;;;;3.07;71.43;99228.23;128387;1108;23797;-57
2021/03/19 11:48:20;;;;;;;7.23;5.33;;;;;;;3.08;70.79;99222.64;128196;1107;22840;-57
2021/03/19 11:50:51;;;;;;;7.70;5.27;;;;;;;3.09;70.18;99229.67;128405;1107;22802;-57
2021/03/19 11:53:22;;;;;;;35.45;17.65;;;;;;;3.10;68.96;99227.81;128253;1108;22969;-58
2021/03/19 11:55:53;;;;;;;8.95;6.60;;;;;;;3.09;68.60;99221.60;128356;1107;22891;-57
2021/03/19 11:58:23;;;;;;;21.85;11.60;;;;;;;3.10;68.68;99220.56;128227;1107;23822;-57
2021/03/19 12:00:50;;;;;;;7.95;6.05;;;;;;;3.16;69.20;99218.88;128390;1108;22975;-57
2021/03/19 12:03:21;;;;;;;15.43;9.83;;;;;;;3.20;68.98;99222.77;128230;1108;22852;-58
2021/03/19 12:05:49;;;;;;;13.20;8.10;;;;;;;3.24;68.93;99223.16;128225;1108;23666;-58
2021/03/19 12:08:17;;;;;;;9.90;6.30;;;;;;;3.30;68.78;99219.61;128149;1107;23502;-58
2021/03/19 12:10:51;;;;;;;13.00;8.15;;;;;;;3.35;69.31;99222.45;128246;1107;22949;-58
2021/03/19 12:13:19;;;;;;;14.80;9.10;;;;;;;3.38;69.25;99222.02;128139;1107;22992;-58
2021/03/19 12:15:49;;;;;;;12.13;7.60;;;;;;;3.37;69.68;99218.50;127336;1108;23046;-53
2021/03/19 12:18:18;;;;;;;14.07;8.37;;;;;;;3.37;68.85;99223.06;128129;1108;22875;-55